Archival Weather

Half Moon Bay

Half Moon Bay, California (KHAF)

Report from: Saturday, September 30, 2023 4:55 AM PDT
Current time: Monday, June 17, 2024 2:32 AM PDT

Current weather – Weather history – Daily summaries
Weather forecast

Present weatherMist
Temperature14.0°C (57.2°F)
Dew point14.0°C (57.2°F)
Winds 10 kts (5.1 m/s, 11.5 mph) North-Northwest (330°)
Wind gusts 16 kts (8.2 m/s, 18.4 mph)
Visibility4 mi. (6.4 km)
Clouds Ceiling: Broken clouds 800 ft. (244 m)
Overcast 1,700 ft. (518 m)
Altimeter29.79 in.Hg (1009 mB)
Relative humidity100 %
Density altitude254 ft. (77 m)
Remarks Fully automated report
Automated weather observing station with precipitation discriminator
Flight conditions Instrument Meteorological Conditions
Raw dataKHAF 301155Z AUTO 33010G16KT 4SM BR BKN008 OVC017 14/14 A2979 RMK AO2
An error has occurred. This application may no longer respond until reloaded. Reload 🗙